createdAt,value
2023-02-14T00:00:27.744Z,3.32
2023-02-14T00:02:54.373Z,3.18
2023-02-14T00:05:21.483Z,3.14
2023-02-14T00:07:48.264Z,3.17
2023-02-14T00:10:14.830Z,3.08
2023-02-14T00:12:41.382Z,3.08
2023-02-14T00:15:25.058Z,3.10
2023-02-14T00:17:54.574Z,3.19
2023-02-14T00:20:23.890Z,2.95
2023-02-14T00:22:50.850Z,2.94
2023-02-14T00:25:17.613Z,3.04
2023-02-14T00:27:44.298Z,3.05
2023-02-14T00:30:12.245Z,2.98
2023-02-14T00:32:40.204Z,2.85
2023-02-14T00:35:07.964Z,2.96
2023-02-14T00:37:34.787Z,3.07
2023-02-14T00:40:01.304Z,3.02
2023-02-14T00:42:27.864Z,2.99
2023-02-14T00:44:54.440Z,3.05
2023-02-14T00:47:20.977Z,2.94
2023-02-14T00:49:47.526Z,3.02
2023-02-14T00:52:14.091Z,2.96
2023-02-14T00:54:40.677Z,2.79
2023-02-14T00:57:07.234Z,3.02
2023-02-14T00:59:35.352Z,2.90
2023-02-14T01:02:03.753Z,2.98
2023-02-14T01:04:30.251Z,3.05
2023-02-14T01:06:56.798Z,2.98
2023-02-14T01:09:23.316Z,2.91
2023-02-14T01:11:49.880Z,2.91
2023-02-14T01:14:16.392Z,2.77
2023-02-14T01:16:42.931Z,2.95
2023-02-14T01:19:09.981Z,2.92
2023-02-14T01:21:36.577Z,2.96
2023-02-14T01:24:06.253Z,2.85
2023-02-14T01:26:32.971Z,2.83
2023-02-14T01:29:01.651Z,2.73
2023-02-14T01:31:32.091Z,2.74
2023-02-14T01:33:59.613Z,2.49
2023-02-14T01:36:35.539Z,2.45
2023-02-14T01:39:05.053Z,2.40
2023-02-14T01:41:33.487Z,2.68
2023-02-14T01:44:04.924Z,2.66
2023-02-14T01:46:34.506Z,2.66
2023-02-14T01:49:04.824Z,2.74
2023-02-14T01:51:32.779Z,2.61
2023-02-14T01:53:59.926Z,2.68
2023-02-14T01:56:37.594Z,2.62
2023-02-14T01:59:07.221Z,2.56
2023-02-14T02:01:33.940Z,2.60
2023-02-14T02:04:10.644Z,2.52
2023-02-14T02:06:43.487Z,2.55
2023-02-14T02:09:16.408Z,2.65
2023-02-14T02:11:43.475Z,2.59
2023-02-14T02:14:18.814Z,2.44
2023-02-14T02:17:21.646Z,2.52
2023-02-14T02:20:20.831Z,2.41
2023-02-14T02:23:09.372Z,2.08
2023-02-14T02:26:12.466Z,2.40
2023-02-14T02:28:48.166Z,2.46
2023-02-14T02:31:25.814Z,2.51
2023-02-14T02:34:03.840Z,2.24
2023-02-14T02:36:58.564Z,2.31
2023-02-14T02:39:45.742Z,2.44
2023-02-14T02:42:36.662Z,2.42
2023-02-14T02:45:09.195Z,2.45
2023-02-14T02:48:05.930Z,2.26
2023-02-14T02:50:57.570Z,2.32
2023-02-14T02:53:26.206Z,2.29
2023-02-14T02:56:15.948Z,2.23
2023-02-14T02:58:49.359Z,2.33
2023-02-14T03:01:21.187Z,2.29
2023-02-14T03:04:11.549Z,2.20
2023-02-14T03:06:38.163Z,2.24
2023-02-14T03:09:33.653Z,2.23
2023-02-14T03:12:15.253Z,2.32
2023-02-14T03:14:50.917Z,2.25
2023-02-14T03:17:43.921Z,2.26
2023-02-14T03:20:22.710Z,2.35
2023-02-14T03:23:09.595Z,2.28
2023-02-14T03:25:51.926Z,2.34
2023-02-14T03:28:43.659Z,2.29
2023-02-14T03:31:22.053Z,2.04
2023-02-14T03:34:10.772Z,2.15
2023-02-14T03:36:57.118Z,1.88
2023-02-14T03:39:28.269Z,2.08
2023-02-14T03:42:06.100Z,2.21
2023-02-14T03:44:34.495Z,1.99
2023-02-14T03:47:08.195Z,1.94
2023-02-14T03:49:39.273Z,1.97
2023-02-14T03:52:07.756Z,2.06
2023-02-14T03:54:34.957Z,1.94
2023-02-14T03:57:08.585Z,1.85
2023-02-14T03:59:36.057Z,2.00
2023-02-14T04:02:09.176Z,1.97
2023-02-14T04:04:44.402Z,2.03
2023-02-14T04:07:19.706Z,2.04
2023-02-14T04:09:46.683Z,1.99
2023-02-14T04:12:13.850Z,2.00
2023-02-14T04:14:40.412Z,2.06
2023-02-14T04:17:26.150Z,1.87
2023-02-14T04:19:52.965Z,1.87
2023-02-14T04:22:19.773Z,1.94
2023-02-14T04:24:46.301Z,1.78
2023-02-14T04:27:12.884Z,1.95
2023-02-14T04:29:47.360Z,1.93
2023-02-14T04:32:17.238Z,1.84
2023-02-14T04:34:44.211Z,1.89
2023-02-14T04:37:11.502Z,1.82
2023-02-14T04:39:38.317Z,1.91
2023-02-14T04:42:05.254Z,1.76
2023-02-14T04:44:33.892Z,1.77
2023-02-14T04:47:00.936Z,1.73
2023-02-14T04:49:27.546Z,1.70
2023-02-14T04:51:54.053Z,1.70
2023-02-14T04:54:20.561Z,1.77
2023-02-14T04:56:47.057Z,1.73
2023-02-14T04:59:14.566Z,1.65
2023-02-14T05:01:41.470Z,1.66
2023-02-14T05:04:08.955Z,1.64
2023-02-14T05:06:36.135Z,1.58
2023-02-14T05:09:03.352Z,1.63
2023-02-14T05:11:30.064Z,1.67
2023-02-14T05:13:56.579Z,1.54
2023-02-14T05:16:23.615Z,1.53
2023-02-14T05:18:50.144Z,1.57
2023-02-14T05:21:16.691Z,1.51
2023-02-14T05:23:43.369Z,1.41
2023-02-14T05:26:09.867Z,1.49
2023-02-14T05:28:36.604Z,1.40
2023-02-14T05:31:03.632Z,1.46
2023-02-14T05:33:30.539Z,1.41
2023-02-14T05:35:59.579Z,1.34
2023-02-14T05:38:26.163Z,1.44
2023-02-14T05:40:52.772Z,1.41
2023-02-14T05:43:19.573Z,1.52
2023-02-14T05:45:46.085Z,1.45
2023-02-14T05:48:13.326Z,1.50
2023-02-14T05:50:40.011Z,1.50
2023-02-14T05:53:06.923Z,1.44
2023-02-14T05:55:33.418Z,1.47
2023-02-14T05:57:59.980Z,1.50
2023-02-14T06:00:27.411Z,1.55
2023-02-14T06:02:54.165Z,1.61
2023-02-14T06:05:20.914Z,1.43
2023-02-14T06:07:50.808Z,1.43
2023-02-14T06:10:22.412Z,1.34
2023-02-14T06:12:50.036Z,1.42
2023-02-14T06:15:17.057Z,1.41
2023-02-14T06:17:43.858Z,1.42
2023-02-14T06:20:11.215Z,1.43
2023-02-14T06:22:38.257Z,1.51
2023-02-14T06:25:06.192Z,1.42
2023-02-14T06:27:32.914Z,1.41
2023-02-14T06:29:59.610Z,1.37
2023-02-14T06:32:26.204Z,1.33
2023-02-14T06:34:52.694Z,1.35
2023-02-14T06:37:20.102Z,1.36
2023-02-14T06:39:46.742Z,1.51
2023-02-14T06:42:13.650Z,1.48
2023-02-14T06:44:40.225Z,1.39
2023-02-14T06:47:08.450Z,1.44
2023-02-14T06:49:34.970Z,1.47
2023-02-14T06:52:01.470Z,1.43
2023-02-14T06:54:27.959Z,1.52
2023-02-14T06:56:54.501Z,1.58
2023-02-14T06:59:21.660Z,1.54
2023-02-14T07:01:48.255Z,1.48
2023-02-14T07:04:14.771Z,1.48
2023-02-14T07:06:41.281Z,1.63
2023-02-14T07:09:07.838Z,1.79
2023-02-14T07:11:34.409Z,1.93
2023-02-14T07:14:00.938Z,1.92
2023-02-14T07:16:27.479Z,2.03
2023-02-14T07:18:53.970Z,2.04
2023-02-14T07:21:20.537Z,2.15
2023-02-14T07:23:49.909Z,2.35
2023-02-14T07:26:18.188Z,2.41
2023-02-14T07:28:51.710Z,2.43
2023-02-14T07:31:19.986Z,2.56
2023-02-14T07:33:46.552Z,2.51
2023-02-14T07:36:13.046Z,2.60
2023-02-14T07:38:39.546Z,2.70
2023-02-14T07:41:06.662Z,2.72
2023-02-14T07:43:34.413Z,2.41
2023-02-14T07:46:02.236Z,2.69
2023-02-14T07:48:31.898Z,2.57
2023-02-14T07:51:00.186Z,2.13
2023-02-14T07:53:26.986Z,2.22
2023-02-14T07:55:53.638Z,1.31
2023-02-14T07:58:20.151Z,1.68
2023-02-14T08:00:46.753Z,2.37
2023-02-14T08:03:14.071Z,2.54
2023-02-14T08:05:41.097Z,2.39
2023-02-14T08:08:07.667Z,2.32
2023-02-14T08:10:34.384Z,2.02
2023-02-14T08:13:01.106Z,2.58
2023-02-14T08:15:48.779Z,2.97
2023-02-14T08:18:15.797Z,2.69
2023-02-14T08:20:42.406Z,2.45
2023-02-14T08:23:08.969Z,2.30
2023-02-14T08:25:35.585Z,2.81
2023-02-14T08:28:03.453Z,3.48
2023-02-14T08:30:31.099Z,3.79
2023-02-14T08:32:57.801Z,2.92
2023-02-14T08:35:26.049Z,2.65
2023-02-14T08:37:55.050Z,3.52
2023-02-14T08:40:21.573Z,3.85
2023-02-14T08:42:48.444Z,3.83
2023-02-14T08:45:14.919Z,3.98
2023-02-14T08:47:41.463Z,3.89
2023-02-14T08:50:13.163Z,3.93
2023-02-14T08:52:40.691Z,4.27
2023-02-14T08:55:07.782Z,3.90
2023-02-14T08:57:34.340Z,4.64
2023-02-14T09:00:01.014Z,5.44
2023-02-14T09:02:27.627Z,4.83
2023-02-14T09:04:54.519Z,5.80
2023-02-14T09:07:21.132Z,6.70
2023-02-14T09:09:47.669Z,6.61
2023-02-14T09:12:14.318Z,5.79
2023-02-14T09:14:44.014Z,6.44
2023-02-14T09:17:15.178Z,6.29
2023-02-14T09:19:41.940Z,6.11
2023-02-14T09:22:09.681Z,5.85
2023-02-14T09:24:37.658Z,5.73
2023-02-14T09:27:04.783Z,5.84
2023-02-14T09:29:32.002Z,5.92
2023-02-14T09:32:00.274Z,6.09
2023-02-14T09:34:27.953Z,5.41
2023-02-14T09:37:13.084Z,5.22
2023-02-14T09:39:39.875Z,5.64
2023-02-14T09:42:24.848Z,5.94
2023-02-14T09:44:58.735Z,6.71
2023-02-14T09:47:50.318Z,6.16
2023-02-14T09:50:24.048Z,7.90
2023-02-14T09:52:53.866Z,8.35
2023-02-14T09:55:20.403Z,9.00
2023-02-14T09:58:01.749Z,9.03
2023-02-14T10:00:48.935Z,7.98
2023-02-14T10:03:32.663Z,7.02
2023-02-14T10:06:05.236Z,8.20
2023-02-14T10:08:31.707Z,8.49
2023-02-14T10:11:07.248Z,9.49
2023-02-14T10:13:40.128Z,9.29
2023-02-14T10:16:27.214Z,10.37
2023-02-14T10:19:12.076Z,8.92
2023-02-14T10:21:43.067Z,9.77
2023-02-14T10:24:31.901Z,8.37
2023-02-14T10:27:11.084Z,6.44
2023-02-14T10:29:37.730Z,7.66
2023-02-14T10:32:04.989Z,8.26
2023-02-14T10:34:42.008Z,8.64
2023-02-14T10:37:27.216Z,9.23
2023-02-14T10:40:05.439Z,9.63
2023-02-14T10:42:40.699Z,8.66
2023-02-14T10:45:22.401Z,9.61
2023-02-14T10:47:52.951Z,9.21
2023-02-14T10:50:39.911Z,9.17
2023-02-14T10:53:15.687Z,9.01
2023-02-14T10:55:57.006Z,9.80
2023-02-14T10:58:25.749Z,9.78
2023-02-14T11:01:03.240Z,9.36
2023-02-14T11:03:30.203Z,8.91
2023-02-14T11:05:56.982Z,9.58
2023-02-14T11:08:41.602Z,9.14
2023-02-14T11:11:17.375Z,8.96
2023-02-14T11:13:44.618Z,9.76
2023-02-14T11:16:14.295Z,9.52
2023-02-14T11:18:41.289Z,8.20
2023-02-14T11:21:14.036Z,9.57
2023-02-14T11:23:46.036Z,10.45
2023-02-14T11:26:31.531Z,11.85
2023-02-14T11:29:00.843Z,11.92
2023-02-14T11:31:36.101Z,10.97
2023-02-14T11:34:05.486Z,11.05
2023-02-14T11:36:32.538Z,11.45
2023-02-14T11:39:22.022Z,10.83
2023-02-14T11:41:54.375Z,11.49
2023-02-14T11:44:24.088Z,10.70
2023-02-14T11:46:53.669Z,10.82
2023-02-14T11:49:40.704Z,10.85
2023-02-14T11:52:14.820Z,10.63
2023-02-14T11:54:41.680Z,9.85
2023-02-14T11:57:21.146Z,9.85
2023-02-14T11:59:53.197Z,9.68
2023-02-14T12:02:26.391Z,8.73
2023-02-14T12:04:56.025Z,9.25
2023-02-14T12:07:33.824Z,9.59
2023-02-14T12:10:17.887Z,8.98
2023-02-14T12:13:08.634Z,9.66
2023-02-14T12:15:43.985Z,8.88
2023-02-14T12:18:37.438Z,9.74
2023-02-14T12:21:16.027Z,9.19
2023-02-14T12:23:48.604Z,9.48
2023-02-14T12:26:40.386Z,9.26
2023-02-14T12:29:18.244Z,9.04
2023-02-14T12:31:47.251Z,8.18
2023-02-14T12:34:14.950Z,9.08
2023-02-14T12:37:15.252Z,9.46
2023-02-14T12:40:04.956Z,9.73
2023-02-14T12:42:34.979Z,9.13
2023-02-14T12:45:19.967Z,9.32
2023-02-14T12:48:03.967Z,9.29
2023-02-14T12:50:51.431Z,10.17
2023-02-14T12:53:33.732Z,10.05
2023-02-14T12:56:24.747Z,9.96
2023-02-14T12:59:15.191Z,9.78
2023-02-14T13:02:00.205Z,10.34
2023-02-14T13:04:41.883Z,10.08
2023-02-14T13:07:38.153Z,9.48
2023-02-14T13:10:16.744Z,9.91
2023-02-14T13:12:48.891Z,9.91
2023-02-14T13:15:19.106Z,10.27
2023-02-14T13:18:17.233Z,10.37
2023-02-14T13:20:57.493Z,10.53
2023-02-14T13:23:29.905Z,10.53
2023-02-14T13:26:01.536Z,10.27
2023-02-14T13:28:29.265Z,10.39
2023-02-14T13:30:56.311Z,10.51
2023-02-14T13:33:34.934Z,10.29
2023-02-14T13:36:04.230Z,10.22
2023-02-14T13:38:31.934Z,10.15
2023-02-14T13:41:00.114Z,10.29
2023-02-14T13:43:45.554Z,10.41
2023-02-14T13:46:13.443Z,10.24
2023-02-14T13:48:40.318Z,10.60
2023-02-14T13:51:08.517Z,10.15
2023-02-14T13:53:42.092Z,10.39
2023-02-14T13:56:11.611Z,10.23
2023-02-14T13:58:48.865Z,10.33
2023-02-14T14:01:48.215Z,10.13
2023-02-14T14:04:31.658Z,10.49
2023-02-14T14:07:01.278Z,10.77
2023-02-14T14:09:42.871Z,10.27
2023-02-14T14:12:27.955Z,10.22
2023-02-14T14:15:07.274Z,10.27
2023-02-14T14:17:46.358Z,10.03
2023-02-14T14:20:15.820Z,10.15
2023-02-14T14:22:54.976Z,9.94
2023-02-14T14:25:37.189Z,9.93
2023-02-14T14:28:24.950Z,9.76
2023-02-14T14:30:51.647Z,9.82
2023-02-14T14:33:31.032Z,9.98
2023-02-14T14:36:04.336Z,9.87
2023-02-14T14:38:33.408Z,9.94
2023-02-14T14:41:01.250Z,9.95
2023-02-14T14:43:29.422Z,9.93
2023-02-14T14:45:57.190Z,10.08
2023-02-14T14:48:41.273Z,9.86
2023-02-14T14:51:09.928Z,9.72
2023-02-14T14:54:16.485Z,9.73
2023-02-14T14:56:52.175Z,9.75
2023-02-14T14:59:37.231Z,9.70
2023-02-14T15:02:19.871Z,9.61
2023-02-14T15:04:46.400Z,9.57
2023-02-14T15:07:33.623Z,9.75
2023-02-14T15:10:00.404Z,9.42
2023-02-14T15:12:45.519Z,9.72
2023-02-14T15:15:14.642Z,9.72
2023-02-14T15:17:42.396Z,9.69
2023-02-14T15:20:14.611Z,9.44
2023-02-14T15:22:46.994Z,10.04
2023-02-14T15:25:26.075Z,9.58
2023-02-14T15:27:52.699Z,9.45
2023-02-14T15:30:36.182Z,9.24
2023-02-14T15:33:07.256Z,9.41
2023-02-14T15:35:38.054Z,9.27
2023-02-14T15:38:06.164Z,9.01
2023-02-14T15:40:34.733Z,9.15
2023-02-14T15:43:22.007Z,9.03
2023-02-14T15:45:51.514Z,8.89
2023-02-14T15:48:41.317Z,8.90
2023-02-14T15:51:18.664Z,8.87
2023-02-14T15:54:07.788Z,8.92
2023-02-14T15:56:52.818Z,8.92
2023-02-14T15:59:24.178Z,8.84
2023-02-14T16:01:59.097Z,8.22
2023-02-14T16:04:27.938Z,8.29
2023-02-14T16:07:22.986Z,8.58
2023-02-14T16:09:51.018Z,8.43
2023-02-14T16:12:31.686Z,8.30
2023-02-14T16:15:21.347Z,7.98
2023-02-14T16:17:48.506Z,8.02
2023-02-14T16:20:29.092Z,8.06
2023-02-14T16:23:27.422Z,8.26
2023-02-14T16:25:57.453Z,8.00
2023-02-14T16:28:28.416Z,7.86
2023-02-14T16:30:56.631Z,7.86
2023-02-14T16:33:26.627Z,7.94
2023-02-14T16:35:53.774Z,7.78
2023-02-14T16:38:21.710Z,7.71
2023-02-14T16:40:50.336Z,7.73
2023-02-14T16:43:19.020Z,7.61
2023-02-14T16:45:49.003Z,7.58
2023-02-14T16:48:18.263Z,7.37
2023-02-14T16:50:54.193Z,7.47
2023-02-14T16:53:27.565Z,7.34
2023-02-14T16:55:55.122Z,7.20
2023-02-14T16:58:26.897Z,7.14
2023-02-14T17:00:53.577Z,7.18
2023-02-14T17:03:20.126Z,7.05
2023-02-14T17:05:46.759Z,7.01
2023-02-14T17:08:15.224Z,6.92
2023-02-14T17:10:42.153Z,6.85
2023-02-14T17:13:10.457Z,6.84
2023-02-14T17:15:38.520Z,6.75
2023-02-14T17:18:09.107Z,6.72
2023-02-14T17:20:35.561Z,6.69
2023-02-14T17:23:02.111Z,6.51
2023-02-14T17:25:28.682Z,6.52
2023-02-14T17:27:56.394Z,6.51
2023-02-14T17:30:23.398Z,6.56
2023-02-14T17:32:49.859Z,6.50
2023-02-14T17:35:16.874Z,6.47
2023-02-14T17:37:43.668Z,6.46
2023-02-14T17:40:10.792Z,6.45
2023-02-14T17:42:38.789Z,6.36
2023-02-14T17:45:06.582Z,6.32
2023-02-14T17:47:33.319Z,6.10
2023-02-14T17:49:59.911Z,6.26
2023-02-14T17:52:28.428Z,6.17
2023-02-14T17:54:55.134Z,6.13
2023-02-14T17:57:21.838Z,6.08
2023-02-14T17:59:48.240Z,6.03
2023-02-14T18:02:14.737Z,5.96
2023-02-14T18:04:41.152Z,5.88
2023-02-14T18:07:07.585Z,5.79
2023-02-14T18:09:34.106Z,5.79
2023-02-14T18:12:00.542Z,5.85
2023-02-14T18:14:27.071Z,5.82
2023-02-14T18:16:53.861Z,5.71
2023-02-14T18:19:20.481Z,5.75
2023-02-14T18:21:47.065Z,5.75
2023-02-14T18:24:15.164Z,5.76
2023-02-14T18:26:41.974Z,5.53
2023-02-14T18:29:13.914Z,5.54
2023-02-14T18:31:41.152Z,5.60
2023-02-14T18:34:07.881Z,5.37
2023-02-14T18:36:38.899Z,5.43
2023-02-14T18:39:05.442Z,5.22
2023-02-14T18:41:32.052Z,5.36
2023-02-14T18:43:58.737Z,5.23
2023-02-14T18:46:30.627Z,5.22
2023-02-14T18:48:57.610Z,5.14
2023-02-14T18:51:25.322Z,5.14
2023-02-14T18:53:52.240Z,5.11
2023-02-14T18:56:21.297Z,5.12
2023-02-14T18:58:50.514Z,5.14
2023-02-14T19:01:19.914Z,5.14
2023-02-14T19:03:46.560Z,4.95
2023-02-14T19:06:13.095Z,5.04
2023-02-14T19:08:40.056Z,4.99
2023-02-14T19:11:18.231Z,5.01
2023-02-14T19:13:46.313Z,4.99
2023-02-14T19:16:15.376Z,4.84
2023-02-14T19:18:42.104Z,4.65
2023-02-14T19:21:13.128Z,4.72
2023-02-14T19:23:41.900Z,4.69
2023-02-14T19:26:12.566Z,4.52
2023-02-14T19:28:39.628Z,4.58
2023-02-14T19:31:06.421Z,4.54
2023-02-14T19:33:37.958Z,4.53
2023-02-14T19:36:09.242Z,4.46
2023-02-14T19:38:36.080Z,4.36
2023-02-14T19:41:02.897Z,4.53
2023-02-14T19:43:29.600Z,4.55
2023-02-14T19:45:56.189Z,4.57
2023-02-14T19:48:23.437Z,4.47
2023-02-14T19:50:50.749Z,4.45
2023-02-14T19:53:17.268Z,4.50
2023-02-14T19:55:43.773Z,4.51
2023-02-14T19:58:17.927Z,4.48
2023-02-14T20:00:44.700Z,4.30
2023-02-14T20:03:11.237Z,4.43
2023-02-14T20:05:41.619Z,4.37
2023-02-14T20:08:08.798Z,4.44
2023-02-14T20:10:35.494Z,4.45
2023-02-14T20:13:01.988Z,4.21
2023-02-14T20:15:29.092Z,4.30
2023-02-14T20:17:57.027Z,4.10
2023-02-14T20:20:23.766Z,4.08
2023-02-14T20:22:50.292Z,4.17
2023-02-14T20:25:17.393Z,4.13
2023-02-14T20:27:44.146Z,4.20
2023-02-14T20:30:12.641Z,4.23
2023-02-14T20:32:39.194Z,4.13
2023-02-14T20:35:06.555Z,4.22
2023-02-14T20:37:33.128Z,4.10
2023-02-14T20:40:00.283Z,4.21
2023-02-14T20:42:27.022Z,4.15
2023-02-14T20:44:53.782Z,4.10
2023-02-14T20:47:20.754Z,3.97
2023-02-14T20:49:47.486Z,3.97
2023-02-14T20:52:14.099Z,3.91
2023-02-14T20:54:40.618Z,4.06
2023-02-14T20:57:07.329Z,3.98
2023-02-14T20:59:34.053Z,3.94
2023-02-14T21:02:00.701Z,3.84
2023-02-14T21:04:28.255Z,3.91
2023-02-14T21:06:55.697Z,3.93
2023-02-14T21:09:22.231Z,3.96
2023-02-14T21:11:49.590Z,3.90
2023-02-14T21:14:17.372Z,4.03
2023-02-14T21:16:43.973Z,4.05
2023-02-14T21:19:10.406Z,4.00
2023-02-14T21:21:37.373Z,4.12
2023-02-14T21:24:04.953Z,4.05
2023-02-14T21:26:32.154Z,3.61
2023-02-14T21:28:58.680Z,3.44
2023-02-14T21:31:25.739Z,3.26
2023-02-14T21:33:54.447Z,3.02
2023-02-14T21:36:21.951Z,3.12
2023-02-14T21:38:48.618Z,3.04
2023-02-14T21:41:16.159Z,3.56
2023-02-14T21:43:44.379Z,3.27
2023-02-14T21:46:16.130Z,3.40
2023-02-14T21:49:01.035Z,3.27
2023-02-14T21:51:27.723Z,3.54
2023-02-14T21:53:54.696Z,3.55
2023-02-14T21:56:22.315Z,3.44
2023-02-14T21:58:50.690Z,3.49
2023-02-14T22:01:31.837Z,3.46
2023-02-14T22:03:58.459Z,3.27
2023-02-14T22:06:25.935Z,3.30
2023-02-14T22:08:54.183Z,3.29
2023-02-14T22:11:21.445Z,3.01
2023-02-14T22:13:47.989Z,3.21
2023-02-14T22:16:16.909Z,3.47
2023-02-14T22:18:44.650Z,3.51
2023-02-14T22:21:13.896Z,3.42
2023-02-14T22:23:40.517Z,3.40
2023-02-14T22:26:17.429Z,3.46
2023-02-14T22:28:45.722Z,3.59
2023-02-14T22:31:12.633Z,3.60
2023-02-14T22:33:39.421Z,3.58
2023-02-14T22:36:07.451Z,3.58
2023-02-14T22:38:34.765Z,3.60
2023-02-14T22:41:09.971Z,3.61
2023-02-14T22:43:37.292Z,3.66
2023-02-14T22:46:08.034Z,3.70
2023-02-14T22:48:35.228Z,3.63
2023-02-14T22:51:30.129Z,3.66
2023-02-14T22:54:08.384Z,3.64
2023-02-14T22:56:41.029Z,3.68
2023-02-14T22:59:18.624Z,3.68
2023-02-14T23:01:45.743Z,3.66
2023-02-14T23:04:12.718Z,3.64
2023-02-14T23:06:41.676Z,3.56
2023-02-14T23:09:11.281Z,3.50
2023-02-14T23:11:39.410Z,3.44
2023-02-14T23:14:24.548Z,3.67
2023-02-14T23:17:10.164Z,3.61
2023-02-14T23:19:55.501Z,3.57
2023-02-14T23:22:36.285Z,3.59
2023-02-14T23:25:05.266Z,3.47
2023-02-14T23:27:34.612Z,3.52
2023-02-14T23:30:03.455Z,3.43
2023-02-14T23:32:29.986Z,3.46
2023-02-14T23:34:57.324Z,3.51
2023-02-14T23:37:23.905Z,3.42
2023-02-14T23:39:50.380Z,3.36
2023-02-14T23:42:17.243Z,3.39
2023-02-14T23:44:46.008Z,3.39
2023-02-14T23:47:13.464Z,3.44
2023-02-14T23:49:40.708Z,3.34
2023-02-14T23:52:09.277Z,3.24
2023-02-14T23:54:36.523Z,3.22
2023-02-14T23:57:03.553Z,3.31
2023-02-14T23:59:30.418Z,3.17
